Time;durP1;ratioP1;P1;durP2;ratioP2;P2;SDS_P1;SDS_P2;PMS_P1;PMS_P2;Temp;Humidity;BMP_temperature;BMP_pressure;BME280_temperature;BME280_humidity;BME280_pressure;Samples;Min_cycle;Max_cycle;Signal;HPM_P1;HPM_P2
2023/04/13 00:00:36;;;;;;;125.23;77.90;;;;;;;6.29;100.00;99959.69;5007795;28;20672;-70
2023/04/13 00:03:03;;;;;;;12.23;7.47;;;;;;;6.12;100.00;99951.72;5007708;28;20286;-69
2023/04/13 00:05:29;;;;;;;4.30;2.90;;;;;;;6.04;100.00;99954.91;5006645;28;20203;-71
2023/04/13 00:07:55;;;;;;;4.53;2.40;;;;;;;6.02;100.00;99949.78;5007562;28;20345;-67
2023/04/13 00:10:21;;;;;;;3.97;2.83;;;;;;;6.05;100.00;99951.53;5007616;28;20195;-67
2023/04/13 00:12:47;;;;;;;3.80;2.87;;;;;;;6.04;100.00;99960.84;5007915;28;20215;-67
2023/04/13 00:15:18;;;;;;;4.53;2.53;;;;;;;5.89;100.00;99960.47;5007547;28;20967;-66
2023/04/13 00:17:44;;;;;;;4.50;2.93;;;;;;;5.89;100.00;99952.88;5007301;28;20219;-69
2023/04/13 00:20:14;;;;;;;9.63;5.43;;;;;;;5.76;100.00;99958.44;5007639;28;20297;-68
2023/04/13 00:22:41;;;;;;;33.27;22.10;;;;;;;5.85;100.00;99958.69;5010585;28;20218;-69
2023/04/13 00:25:08;;;;;;;75.70;52.27;;;;;;;5.87;100.00;99949.44;5010867;28;20671;-70
2023/04/13 00:27:34;;;;;;;9.17;5.13;;;;;;;5.84;100.00;99951.06;5010427;28;20215;-69
2023/04/13 00:29:59;;;;;;;5.97;3.33;;;;;;;5.69;100.00;99955.72;4993920;28;20656;-66
2023/04/13 00:32:25;;;;;;;3.40;2.90;;;;;;;5.75;100.00;99953.34;4993224;28;20845;-68
2023/04/13 00:34:51;;;;;;;4.30;3.27;;;;;;;5.76;100.00;99955.91;4993099;28;20624;-67
2023/04/13 00:37:18;;;;;;;7.37;3.30;;;;;;;5.69;100.00;99951.50;5005799;28;20219;-68
2023/04/13 00:39:45;;;;;;;7.90;3.43;;;;;;;5.58;100.00;99949.53;5011011;28;20179;-70
2023/04/13 00:42:12;;;;;;;6.73;3.50;;;;;;;5.56;100.00;99941.88;5005876;28;20283;-69
2023/04/13 00:44:38;;;;;;;6.50;3.83;;;;;;;5.45;100.00;99934.81;4993077;28;20288;-68
2023/04/13 00:47:05;;;;;;;6.07;3.50;;;;;;;5.44;100.00;99933.13;5010685;28;20222;-67
2023/04/13 00:49:34;;;;;;;6.93;3.93;;;;;;;5.42;100.00;99943.22;5009198;28;20234;-72
2023/04/13 00:52:01;;;;;;;58.20;33.93;;;;;;;5.37;100.00;99943.91;5008690;28;20559;-72
2023/04/13 00:54:28;;;;;;;11.50;6.77;;;;;;;5.35;100.00;99943.88;5007015;28;20272;-68
2023/04/13 00:56:55;;;;;;;4.97;3.50;;;;;;;5.35;100.00;99938.78;4992768;28;20219;-69
2023/04/13 00:59:22;;;;;;;3.97;3.53;;;;;;;5.25;100.00;99934.31;4993055;28;20202;-69
2023/04/13 01:01:55;;;;;;;5.30;4.03;;;;;;;5.21;100.00;99941.81;5010103;28;20710;-68
2023/04/13 01:04:24;;;;;;;8.37;4.67;;;;;;;5.26;100.00;99938.59;5010575;28;20203;-68
2023/04/13 01:07:28;;;;;;;6.70;4.30;;;;;;;5.06;100.00;99942.28;4989408;28;20206;-69
2023/04/13 01:10:04;;;;;;;7.30;4.50;;;;;;;4.97;100.00;99942.03;4989615;28;20436;-69
2023/04/13 01:12:45;;;;;;;7.73;4.83;;;;;;;5.05;100.00;99944.75;4989569;28;20203;-69
2023/04/13 01:15:13;;;;;;;7.60;4.77;;;;;;;5.01;100.00;99943.00;4995722;28;20649;-68
2023/04/13 01:17:43;;;;;;;9.10;5.00;;;;;;;5.02;100.00;99948.06;4989739;28;20272;-67
2023/04/13 01:20:14;;;;;;;120.00;79.60;;;;;;;4.96;100.00;99947.06;5006952;28;20642;-65
2023/04/13 01:22:50;;;;;;;113.87;70.87;;;;;;;4.99;100.00;99944.59;5010334;28;20677;-67
2023/04/13 01:25:30;;;;;;;16.03;9.20;;;;;;;4.92;100.00;99945.28;4994644;28;20680;-65
2023/04/13 01:28:10;;;;;;;7.57;4.87;;;;;;;4.79;100.00;99959.28;4990647;28;20233;-67
2023/04/13 01:30:38;;;;;;;7.87;4.80;;;;;;;4.75;100.00;99954.09;5008419;28;20203;-66
2023/04/13 01:33:04;;;;;;;7.03;4.77;;;;;;;4.77;100.00;99947.38;4990919;28;20199;-67
2023/04/13 01:35:32;;;;;;;8.33;4.70;;;;;;;4.66;100.00;99949.63;4990763;28;20852;-67
2023/04/13 01:37:58;;;;;;;6.77;4.97;;;;;;;4.72;100.00;99944.72;4990360;28;20226;-68
2023/04/13 01:40:27;;;;;;;7.60;5.37;;;;;;;4.69;100.00;99944.63;5005787;28;20654;-68
2023/04/13 01:42:55;;;;;;;10.17;5.17;;;;;;;4.69;100.00;99943.78;4994810;28;20187;-67
2023/04/13 01:45:25;;;;;;;7.73;4.57;;;;;;;4.67;100.00;99958.09;4991334;28;20206;-68
2023/04/13 01:48:17;;;;;;;8.50;5.30;;;;;;;4.52;100.00;99947.53;4987449;28;20314;-68
2023/04/13 01:51:15;;;;;;;9.90;5.53;;;;;;;4.29;100.00;99951.06;4992313;28;20202;-67
2023/04/13 01:53:53;;;;;;;16.00;9.00;;;;;;;4.36;100.00;99953.81;5008274;28;20199;-70
2023/04/13 01:56:21;;;;;;;227.47;100.17;;;;;;;4.31;100.00;99950.28;4991374;28;20222;-70
2023/04/13 01:58:52;;;;;;;12.57;8.77;;;;;;;4.22;100.00;99950.03;4990794;28;20225;-67
2023/04/13 02:01:18;;;;;;;9.93;6.43;;;;;;;4.15;100.00;99953.16;4990597;28;20546;-68
2023/04/13 02:03:44;;;;;;;9.20;5.93;;;;;;;4.15;100.00;99953.16;4991568;28;20194;-67
2023/04/13 02:06:09;;;;;;;8.63;5.50;;;;;;;3.94;100.00;99955.06;5009124;28;20626;-67
2023/04/13 02:08:39;;;;;;;9.23;5.30;;;;;;;4.03;100.00;99960.41;4989741;28;20699;-67
2023/04/13 02:11:06;;;;;;;9.87;6.90;;;;;;;4.16;100.00;99964.16;5009768;28;20195;-66
2023/04/13 02:13:33;;;;;;;11.70;7.60;;;;;;;4.24;100.00;99962.72;4991062;28;20217;-68
2023/04/13 02:15:59;;;;;;;9.43;6.53;;;;;;;4.28;100.00;99955.25;4991405;28;20226;-70
2023/04/13 02:18:25;;;;;;;10.60;6.90;;;;;;;4.24;100.00;99950.91;4987904;28;20617;-68
2023/04/13 02:21:06;;;;;;;13.43;7.40;;;;;;;4.19;100.00;99954.16;4974226;28;20256;-67
2023/04/13 02:23:33;;;;;;;12.03;7.37;;;;;;;4.17;100.00;99948.16;5004069;28;20211;-68
2023/04/13 02:25:59;;;;;;;12.63;7.70;;;;;;;4.07;100.00;99948.69;4990653;28;20211;-67
2023/04/13 02:28:28;;;;;;;11.57;6.70;;;;;;;3.87;100.00;99958.19;4991692;28;20202;-68
2023/04/13 02:30:54;;;;;;;13.47;7.00;;;;;;;3.89;100.00;99950.66;5005480;28;20277;-72
2023/04/13 02:33:20;;;;;;;13.40;7.37;;;;;;;3.80;100.00;99956.31;5007982;28;20301;-67
2023/04/13 02:35:49;;;;;;;11.43;6.80;;;;;;;3.85;100.00;99959.84;4990183;28;20218;-71
2023/04/13 02:38:16;;;;;;;13.00;6.80;;;;;;;3.67;100.00;99964.31;4989878;28;20555;-69
2023/04/13 02:40:48;;;;;;;10.27;6.17;;;;;;;3.69;100.00;99966.91;4989782;28;20767;-69
2023/04/13 02:43:14;;;;;;;8.30;6.30;;;;;;;3.65;100.00;99960.91;5007131;28;20727;-69
2023/04/13 02:45:41;;;;;;;11.20;6.67;;;;;;;3.65;100.00;99962.56;4989648;28;20285;-67
2023/04/13 02:48:09;;;;;;;13.87;6.87;;;;;;;3.56;100.00;99973.25;4990033;28;20202;-68
2023/04/13 02:50:35;;;;;;;9.63;7.03;;;;;;;3.58;100.00;99976.66;4990809;28;20281;-69
2023/04/13 02:53:06;;;;;;;14.20;6.77;;;;;;;3.56;100.00;99980.84;4989233;28;20202;-68
2023/04/13 02:55:32;;;;;;;16.07;7.37;;;;;;;3.52;100.00;99985.72;4988474;28;20215;-68
2023/04/13 02:58:03;;;;;;;13.53;7.47;;;;;;;3.47;100.00;99978.00;4996600;28;20724;-67
2023/04/13 03:00:31;;;;;;;17.73;12.07;;;;;;;3.55;100.00;99973.19;4987114;28;20206;-74
2023/04/13 03:03:02;;;;;;;32.13;19.83;;;;;;;3.63;100.00;99967.56;4990407;28;20202;-68
2023/04/13 03:05:31;;;;;;;17.17;10.20;;;;;;;3.64;100.00;99964.22;5006832;28;20593;-70
2023/04/13 03:07:58;;;;;;;15.50;9.00;;;;;;;3.59;100.00;99965.72;4987607;28;20549;-69
2023/04/13 03:10:24;;;;;;;13.63;8.40;;;;;;;3.56;100.00;99960.59;4977425;28;20195;-68
2023/04/13 03:12:50;;;;;;;16.47;8.83;;;;;;;3.52;100.00;99956.25;4989341;28;20203;-70
2023/04/13 03:15:17;;;;;;;13.90;8.63;;;;;;;3.51;100.00;99964.66;4993722;28;20221;-70
2023/04/13 03:17:43;;;;;;;14.07;8.17;;;;;;;3.49;100.00;99963.72;5005685;28;20269;-68
2023/04/13 03:20:14;;;;;;;12.63;7.67;;;;;;;3.52;100.00;99953.72;4997914;28;20191;-67
2023/04/13 03:22:47;;;;;;;16.03;8.43;;;;;;;3.57;100.00;99959.78;4989079;28;20203;-67
2023/04/13 03:25:12;;;;;;;13.37;8.53;;;;;;;3.62;100.00;99957.38;4990215;28;20334;-69
2023/04/13 03:27:38;;;;;;;16.00;8.87;;;;;;;3.62;100.00;99954.84;5005393;28;20305;-67
2023/04/13 03:30:07;;;;;;;14.07;8.70;;;;;;;3.68;100.00;99955.06;4988491;28;20257;-70
2023/04/13 03:32:40;;;;;;;19.33;8.53;;;;;;;3.60;100.00;99957.34;4989020;28;20214;-68
2023/04/13 03:35:05;;;;;;;15.60;9.77;;;;;;;3.59;100.00;99968.25;5002810;28;20222;-68
2023/04/13 03:37:38;;;;;;;16.53;9.60;;;;;;;3.58;100.00;99964.03;4988170;28;20234;-71
2023/04/13 03:40:10;;;;;;;22.07;9.70;;;;;;;3.63;100.00;99959.13;4987315;28;20684;-72
2023/04/13 03:42:44;;;;;;;18.20;9.60;;;;;;;3.58;100.00;99958.13;4996614;28;20203;-67
2023/04/13 03:45:10;;;;;;;19.67;9.97;;;;;;;3.53;100.00;99967.19;5006903;28;20195;-67
2023/04/13 03:47:38;;;;;;;19.87;10.40;;;;;;;3.55;100.00;99955.47;4988552;28;20289;-67
2023/04/13 03:50:04;;;;;;;19.87;10.80;;;;;;;3.63;100.00;99972.63;4993219;28;20223;-68
2023/04/13 03:52:33;;;;;;;22.70;10.83;;;;;;;3.63;100.00;99967.56;4983542;28;20226;-67
2023/04/13 03:54:59;;;;;;;19.77;10.87;;;;;;;3.59;100.00;99964.91;4970689;28;20643;-69
2023/04/13 03:57:28;;;;;;;19.17;10.90;;;;;;;3.60;100.00;99962.41;4992868;28;20299;-67
2023/04/13 03:59:55;;;;;;;20.03;11.60;;;;;;;3.60;100.00;99959.00;5002484;28;20937;-69
2023/04/13 04:02:28;;;;;;;20.23;11.57;;;;;;;3.65;100.00;99960.03;5011104;28;20290;-68
2023/04/13 04:04:53;;;;;;;21.37;11.00;;;;;;;3.65;100.00;99957.50;4994058;28;20197;-67
2023/04/13 04:07:22;;;;;;;19.83;11.27;;;;;;;3.63;100.00;99957.44;4993669;28;20225;-67
2023/04/13 04:09:48;;;;;;;22.10;11.50;;;;;;;3.57;100.00;99957.25;4993043;28;20293;-68
2023/04/13 04:12:15;;;;;;;20.80;11.47;;;;;;;3.58;100.00;99960.66;4992895;28;20198;-68
2023/04/13 04:14:42;;;;;;;21.13;11.73;;;;;;;3.54;100.00;99962.19;4993523;28;20218;-69
2023/04/13 04:17:16;;;;;;;19.47;11.40;;;;;;;3.58;100.00;99958.13;4993806;28;20280;-68
2023/04/13 04:19:42;;;;;;;23.60;11.97;;;;;;;3.53;100.00;99970.59;5004789;28;20219;-67
2023/04/13 04:22:08;;;;;;;24.67;12.80;;;;;;;3.50;100.00;99967.13;4994041;28;20280;-66
2023/04/13 04:24:37;;;;;;;20.13;11.23;;;;;;;3.48;100.00;99972.13;4993361;28;20213;-67
2023/04/13 04:27:04;;;;;;;22.37;12.20;;;;;;;3.46;100.00;99976.28;4991322;28;20218;-69
2023/04/13 04:29:33;;;;;;;24.07;12.67;;;;;;;3.45;100.00;99969.47;4993761;28;20195;-70
2023/04/13 04:32:01;;;;;;;29.57;16.43;;;;;;;3.53;100.00;99967.19;4993915;28;20195;-69
2023/04/13 04:34:27;;;;;;;23.90;13.73;;;;;;;3.54;100.00;99963.88;5007970;28;20213;-67
2023/04/13 04:36:54;;;;;;;25.10;14.50;;;;;;;3.61;100.00;99965.78;4992600;28;20222;-70
2023/04/13 04:39:22;;;;;;;27.83;16.30;;;;;;;3.65;100.00;99963.44;5009764;28;20199;-67
2023/04/13 04:42:01;;;;;;;25.40;15.10;;;;;;;3.67;100.00;99968.50;4990538;28;20270;-68
2023/04/13 04:44:29;;;;;;;33.13;21.47;;;;;;;3.67;100.00;99973.56;5003070;28;20281;-67
2023/04/13 04:46:58;;;;;;;38.10;23.93;;;;;;;3.70;100.00;99966.97;5004838;28;20219;-68
2023/04/13 04:49:28;;;;;;;29.73;17.27;;;;;;;3.73;100.00;99973.78;4989705;28;20586;-69
2023/04/13 04:51:56;;;;;;;25.53;14.27;;;;;;;3.77;100.00;99973.09;4988661;28;20195;-67
2023/04/13 04:54:22;;;;;;;24.20;14.30;;;;;;;3.76;100.00;99977.28;5007646;28;20728;-67
2023/04/13 04:56:49;;;;;;;23.60;13.80;;;;;;;3.80;100.00;99975.69;4992171;28;20244;-67
2023/04/13 04:59:18;;;;;;;26.43;12.47;;;;;;;3.82;100.00;99977.44;4996729;28;20195;-66
2023/04/13 05:01:59;;;;;;;27.20;14.50;;;;;;;3.86;100.00;99975.91;4993138;28;20195;-68
2023/04/13 05:04:25;;;;;;;27.30;13.17;;;;;;;3.90;100.00;99983.63;5009457;28;20202;-72
2023/04/13 05:06:51;;;;;;;24.60;12.83;;;;;;;3.92;100.00;99979.47;4990349;28;20226;-70
2023/04/13 05:09:21;;;;;;;21.47;12.77;;;;;;;4.01;100.00;99979.75;5003194;28;20206;-66
2023/04/13 05:11:50;;;;;;;20.67;12.57;;;;;;;4.08;100.00;99974.06;4992984;28;20282;-68
2023/04/13 05:14:17;;;;;;;24.30;13.37;;;;;;;4.20;100.00;99974.47;4989989;28;20221;-72
2023/04/13 05:16:43;;;;;;;22.80;13.87;;;;;;;4.29;100.00;99978.94;5009959;28;20723;-68
2023/04/13 05:19:15;;;;;;;22.97;13.47;;;;;;;4.37;100.00;99983.41;4990868;28;20241;-68
2023/04/13 05:21:47;;;;;;;22.50;13.17;;;;;;;4.50;100.00;99984.63;4991620;28;20195;-67
2023/04/13 05:24:12;;;;;;;24.67;12.30;;;;;;;4.61;100.00;99981.56;4992898;28;20187;-68
2023/04/13 05:26:41;;;;;;;23.60;13.00;;;;;;;4.73;100.00;99986.13;4990232;28;20290;-68
2023/04/13 05:29:08;;;;;;;21.27;12.07;;;;;;;4.89;100.00;99983.22;4991708;28;20213;-68
2023/04/13 05:31:37;;;;;;;22.37;12.27;;;;;;;5.04;100.00;99981.97;4992253;28;20206;-66
2023/04/13 05:34:02;;;;;;;23.97;12.03;;;;;;;5.16;100.00;99989.88;4992034;28;21041;-69
2023/04/13 05:36:30;;;;;;;20.00;12.00;;;;;;;5.34;100.00;99987.00;4991999;28;20922;-69
2023/04/13 05:39:01;;;;;;;19.43;11.70;;;;;;;5.45;100.00;99993.19;4990112;28;20223;-70
2023/04/13 05:41:28;;;;;;;17.97;11.40;;;;;;;5.56;100.00;99989.25;5006535;28;20191;-66
2023/04/13 05:43:53;;;;;;;20.17;10.97;;;;;;;5.68;100.00;99987.03;5007911;28;20219;-68
2023/04/13 05:46:20;;;;;;;18.20;10.47;;;;;;;5.81;100.00;99992.47;4991980;28;20222;-68
2023/04/13 05:48:46;;;;;;;17.13;10.07;;;;;;;5.89;100.00;99985.06;4992176;28;20218;-67
2023/04/13 05:51:14;;;;;;;16.87;9.83;;;;;;;5.99;100.00;99990.34;4988323;28;20202;-68
2023/04/13 05:53:40;;;;;;;16.10;9.53;;;;;;;6.12;100.00;99992.38;4990631;28;20203;-67
2023/04/13 05:56:06;;;;;;;14.17;8.53;;;;;;;6.27;100.00;99992.72;5005795;28;20203;-68
2023/04/13 05:58:33;;;;;;;12.83;7.53;;;;;;;6.37;100.00;99998.88;4989346;28;20202;-68
2023/04/13 06:01:15;;;;;;;10.13;7.60;;;;;;;6.53;100.00;100006.00;4989713;28;20202;-68
2023/04/13 06:03:42;;;;;;;10.67;6.23;;;;;;;6.67;100.00;100005.47;4989224;28;20278;-69
2023/04/13 06:06:07;;;;;;;10.80;6.57;;;;;;;6.84;100.00;99999.06;4993866;28;20257;-69
2023/04/13 06:08:34;;;;;;;8.63;6.07;;;;;;;6.95;100.00;100001.81;4987971;28;20719;-67
2023/04/13 06:11:00;;;;;;;10.47;6.70;;;;;;;7.24;100.00;100003.22;5009543;28;20199;-68
2023/04/13 06:13:26;;;;;;;10.70;6.40;;;;;;;7.18;100.00;100003.13;4987954;28;20265;-68
2023/04/13 06:15:52;;;;;;;8.00;5.67;;;;;;;7.13;100.00;100008.09;4989929;28;20234;-69
2023/04/13 06:18:18;;;;;;;8.90;5.47;;;;;;;7.09;100.00;100001.25;4990909;28;20597;-68
2023/04/13 06:20:44;;;;;;;9.13;5.37;;;;;;;7.04;100.00;100015.56;5008710;28;20191;-67
2023/04/13 06:23:11;;;;;;;10.07;5.37;;;;;;;7.07;100.00;100012.22;4990790;28;20345;-67
2023/04/13 06:25:39;;;;;;;7.67;5.43;;;;;;;7.14;100.00;100011.53;4990144;28;20219;-71
2023/04/13 06:28:06;;;;;;;8.47;4.77;;;;;;;7.16;100.00;100012.41;4989956;28;20199;-70
2023/04/13 06:30:36;;;;;;;10.83;4.87;;;;;;;7.32;100.00;100006.78;4991100;28;20199;-69
2023/04/13 06:33:06;;;;;;;6.37;4.00;;;;;;;7.37;100.00;100002.63;4991522;28;20195;-69
2023/04/13 06:35:35;;;;;;;8.03;4.23;;;;;;;7.41;100.00;100017.16;5005301;28;20250;-70
2023/04/13 06:38:01;;;;;;;6.53;3.80;;;;;;;7.52;100.00;100005.44;4990773;28;20242;-70
2023/04/13 06:40:34;;;;;;;7.80;4.37;;;;;;;7.61;100.00;100000.53;5005789;28;20719;-70
2023/04/13 06:43:03;;;;;;;5.53;3.60;;;;;;;7.68;100.00;100000.66;4988962;28;20297;-68
2023/04/13 06:45:42;;;;;;;5.23;3.30;;;;;;;7.72;100.00;99986.25;5007440;28;20222;-69
2023/04/13 06:48:16;;;;;;;3.83;2.70;;;;;;;7.82;100.00;100005.97;4988634;28;20672;-67
2023/04/13 06:50:43;;;;;;;5.73;2.73;;;;;;;7.90;100.00;99996.75;4988532;28;20194;-67
2023/04/13 06:53:08;;;;;;;5.57;2.70;;;;;;;8.02;100.00;100002.06;4990394;28;20228;-67
2023/04/13 06:55:34;;;;;;;3.87;2.87;;;;;;;8.05;100.00;100004.63;5006735;28;20684;-68
2023/04/13 06:58:00;;;;;;;4.17;2.90;;;;;;;8.10;100.00;100005.56;4989330;28;20199;-67
2023/04/13 07:00:26;;;;;;;4.03;2.13;;;;;;;8.07;100.00;99997.88;4989893;28;20738;-70
2023/04/13 07:02:51;;;;;;;3.83;2.30;;;;;;;8.15;100.00;99994.63;4990865;28;20194;-67
2023/04/13 07:05:18;;;;;;;2.17;1.90;;;;;;;8.12;100.00;100004.78;4990922;28;20222;-73
2023/04/13 07:07:47;;;;;;;2.77;1.90;;;;;;;8.21;100.00;100020.22;4990025;28;20261;-68
2023/04/13 07:10:13;;;;;;;4.83;1.83;;;;;;;8.25;100.00;100013.50;4990017;28;20195;-68
2023/04/13 07:12:38;;;;;;;2.50;1.57;;;;;;;8.27;100.00;100020.34;5008174;28;20187;-66
2023/04/13 07:15:05;;;;;;;1.40;1.30;;;;;;;8.40;100.00;100019.69;4989842;28;20632;-67
2023/04/13 07:17:31;;;;;;;5.30;1.70;;;;;;;8.46;100.00;100012.13;4989692;28;20214;-68
2023/04/13 07:19:57;;;;;;;2.17;1.60;;;;;;;8.57;100.00;100017.38;5008395;28;20595;-66
2023/04/13 07:22:22;;;;;;;2.57;1.50;;;;;;;8.60;100.00;100020.81;5008260;28;20199;-66
2023/04/13 07:24:50;;;;;;;3.30;1.33;;;;;;;8.60;100.00;100023.38;4989521;28;20655;-69
2023/04/13 07:27:18;;;;;;;2.07;1.17;;;;;;;8.60;100.00;100027.59;4988030;28;20214;-68
2023/04/13 07:29:43;;;;;;;4.07;1.23;;;;;;;8.62;100.00;100020.84;4988308;28;20205;-65
2023/04/13 07:32:13;;;;;;;3.03;1.37;;;;;;;8.71;100.00;100028.63;4995026;28;20183;-66
2023/04/13 07:34:42;;;;;;;2.90;1.47;;;;;;;8.93;100.00;100021.25;5002178;28;20219;-69
2023/04/13 07:37:08;;;;;;;1.70;1.17;;;;;;;8.91;100.00;100015.28;4989968;28;20354;-66
2023/04/13 07:39:34;;;;;;;2.43;1.10;;;;;;;9.08;100.00;100018.88;4991177;28;20187;-69
2023/04/13 07:42:01;;;;;;;2.90;1.00;;;;;;;9.31;100.00;100012.34;5000320;28;20209;-69
2023/04/13 07:44:34;;;;;;;2.70;1.30;;;;;;;9.50;100.00;100004.00;4992030;28;20191;-68
2023/04/13 07:47:01;;;;;;;2.47;1.10;;;;;;;9.46;100.00;100016.75;4991469;28;20326;-66
2023/04/13 07:49:29;;;;;;;3.30;1.20;;;;;;;9.48;100.00;100018.50;4994352;28;20201;-68
2023/04/13 07:51:55;;;;;;;4.90;1.33;;;;;;;9.51;100.00;100026.19;4993309;28;20202;-69
2023/04/13 07:54:21;;;;;;;3.00;1.00;;;;;;;9.68;100.00;100028.91;4994484;28;20215;-67
2023/04/13 07:56:48;;;;;;;1.43;1.00;;;;;;;9.58;100.00;100040.72;4993763;28;20206;-67
2023/04/13 07:59:15;;;;;;;3.27;1.23;;;;;;;9.59;100.00;100029.66;4993001;28;20191;-65
2023/04/13 08:01:42;;;;;;;2.50;0.80;;;;;;;9.68;100.00;100026.34;4994044;28;20657;-66
2023/04/13 08:04:07;;;;;;;2.87;1.20;;;;;;;9.73;100.00;100040.03;4992201;28;20194;-68
2023/04/13 08:06:34;;;;;;;1.83;1.10;;;;;;;9.70;100.00;100063.00;4993797;28;20214;-72
2023/04/13 08:09:00;;;;;;;1.70;0.97;;;;;;;9.71;100.00;100027.25;4991696;28;20687;-67
2023/04/13 08:11:25;;;;;;;3.67;1.13;;;;;;;10.01;100.00;100017.28;4994298;28;20561;-69
2023/04/13 08:13:57;;;;;;;1.77;1.10;;;;;;;10.62;100.00;99987.88;4993780;28;20245;-66
2023/04/13 08:16:23;;;;;;;3.43;1.00;;;;;;;10.44;100.00;99988.63;4992857;28;20913;-66
2023/04/13 08:18:48;;;;;;;2.07;1.30;;;;;;;10.69;100.00;99985.34;5011420;28;20241;-66
2023/04/13 08:21:14;;;;;;;2.03;0.83;;;;;;;10.42;100.00;99951.09;4994169;28;20199;-68
2023/04/13 08:23:41;;;;;;;2.43;0.87;;;;;;;10.55;100.00;99997.22;4993825;28;20195;-66
2023/04/13 08:26:16;;;;;;;4.37;1.00;;;;;;;10.55;100.00;100014.28;4992779;28;20688;-67
2023/04/13 08:28:41;;;;;;;2.17;1.17;;;;;;;10.44;100.00;100009.09;5010067;28;20195;-66
2023/04/13 08:31:07;;;;;;;1.73;1.10;;;;;;;10.76;100.00;100001.59;4990967;28;20270;-68
2023/04/13 08:33:33;;;;;;;3.13;1.10;;;;;;;11.29;100.00;99980.44;4994183;28;20561;-71
2023/04/13 08:35:58;;;;;;;2.23;0.90;;;;;;;11.20;100.00;100003.47;5010152;28;20215;-67
2023/04/13 08:38:24;;;;;;;1.07;0.90;;;;;;;11.06;100.00;100007.69;4992577;28;20526;-67
2023/04/13 08:40:51;;;;;;;3.33;1.20;;;;;;;10.93;100.00;100021.31;4992206;28;20769;-67
2023/04/13 08:43:23;;;;;;;2.47;1.47;;;;;;;10.93;100.00;100049.47;4992242;28;20278;-68
2023/04/13 08:45:49;;;;;;;1.80;1.00;;;;;;;10.92;100.00;100016.19;4993474;28;20791;-70
2023/04/13 08:48:17;;;;;;;2.60;1.10;;;;;;;11.10;100.00;100012.00;4997281;28;20198;-68
2023/04/13 08:50:46;;;;;;;2.13;1.03;;;;;;;10.89;100.00;100011.91;4993176;28;20275;-68
2023/04/13 08:53:16;;;;;;;2.10;1.17;;;;;;;10.61;100.00;100029.69;4992486;28;20217;-69
2023/04/13 08:55:46;;;;;;;2.27;1.00;;;;;;;10.58;100.00;100009.16;4996615;28;20215;-70
2023/04/13 08:58:15;;;;;;;3.00;1.20;;;;;;;10.44;100.00;100028.72;5010313;28;20249;-69
2023/04/13 09:00:42;;;;;;;3.13;1.17;;;;;;;10.36;100.00;100049.13;4992879;28;20233;-69
2023/04/13 09:03:11;;;;;;;2.63;1.17;;;;;;;10.26;100.00;100052.47;4992512;28;20191;-67
2023/04/13 09:05:41;;;;;;;2.50;1.03;;;;;;;10.25;100.00;100045.66;5008616;28;20190;-69
2023/04/13 09:08:08;;;;;;;2.67;0.97;;;;;;;10.28;100.00;100060.16;4992788;28;20199;-67
2023/04/13 09:10:37;;;;;;;1.10;0.80;;;;;;;10.30;100.00;100033.75;4991811;28;20187;-69
2023/04/13 09:13:04;;;;;;;2.87;1.00;;;;;;;10.37;100.00;100016.75;4995860;28;20205;-68
2023/04/13 09:15:30;;;;;;;2.33;0.90;;;;;;;10.61;100.00;100002.38;5009086;28;20222;-68
2023/04/13 09:18:17;;;;;;;2.80;1.13;;;;;;;10.70;100.00;100001.56;5009816;28;20226;-68
2023/04/13 09:20:55;;;;;;;2.63;0.90;;;;;;;11.12;100.00;99983.81;5006834;28;20297;-69
2023/04/13 09:23:21;;;;;;;1.53;0.80;;;;;;;10.98;100.00;99975.22;5009457;28;20218;-68
2023/04/13 09:25:46;;;;;;;3.10;0.90;;;;;;;10.92;100.00;99995.72;5010258;28;20683;-68
2023/04/13 09:28:18;;;;;;;3.80;1.10;;;;;;;10.70;100.00;100034.84;5010140;28;20218;-67
2023/04/13 09:30:45;;;;;;;4.47;0.80;;;;;;;10.67;100.00;100080.91;5009339;28;20234;-68
2023/04/13 09:33:12;;;;;;;1.47;1.00;;;;;;;10.66;100.00;100068.97;4991455;28;20210;-68
2023/04/13 09:35:38;;;;;;;1.30;0.73;;;;;;;10.72;100.00;100103.16;5009600;28;20222;-66
2023/04/13 09:38:05;;;;;;;2.17;1.07;;;;;;;10.38;100.00;100114.00;5009919;28;20198;-67
2023/04/13 09:40:31;;;;;;;1.60;1.03;;;;;;;10.48;100.00;100113.22;5009016;28;20203;-68
2023/04/13 09:42:59;;;;;;;2.10;0.80;;;;;;;10.80;100.00;100090.38;5009820;28;20265;-67
2023/04/13 09:45:38;;;;;;;2.20;0.90;;;;;;;10.80;100.00;100092.94;5007480;28;20233;-69
2023/04/13 09:48:17;;;;;;;3.27;1.03;;;;;;;10.95;100.00;100119.53;5007892;28;20680;-67
2023/04/13 09:50:42;;;;;;;1.10;1.00;;;;;;;10.74;100.00;100098.03;5007455;28;20195;-69
2023/04/13 09:53:09;;;;;;;2.03;1.50;;;;;;;10.67;100.00;100103.94;5009382;28;20560;-68
2023/04/13 09:55:36;;;;;;;2.37;0.97;;;;;;;10.61;100.00;100104.78;5009214;28;20226;-69
2023/04/13 09:58:09;;;;;;;1.57;1.30;;;;;;;10.70;100.00;100137.28;5004544;28;20191;-66
2023/04/13 10:00:40;;;;;;;1.33;1.00;;;;;;;10.59;100.00;100129.50;5009690;28;20649;-69
2023/04/13 10:03:10;;;;;;;1.60;1.20;;;;;;;10.70;100.00;100142.41;5004944;28;20195;-66
2023/04/13 10:05:37;;;;;;;2.27;1.00;;;;;;;10.76;100.00;100093.78;5008621;28;20729;-69
2023/04/13 10:08:04;;;;;;;2.77;1.20;;;;;;;10.86;100.00;100029.81;5008526;28;20649;-66
2023/04/13 10:10:29;;;;;;;1.67;1.13;;;;;;;10.81;100.00;99987.97;5009467;28;20202;-68
2023/04/13 10:12:58;;;;;;;1.10;1.00;;;;;;;11.03;100.00;99994.03;5009231;28;20207;-68
2023/04/13 10:15:49;;;;;;;1.33;1.10;;;;;;;11.52;100.00;99942.88;5005447;28;20242;-68
2023/04/13 10:18:56;;;;;;;1.50;1.00;;;;;;;11.38;100.00;99923.25;5009372;28;20254;-68
2023/04/13 10:21:24;;;;;;;3.97;1.27;;;;;;;12.25;100.00;99823.94;5006538;28;20276;-68
2023/04/13 10:23:50;;;;;;;1.50;0.93;;;;;;;12.06;100.00;99831.72;5008594;28;21304;-67
2023/04/13 10:26:16;;;;;;;1.17;0.97;;;;;;;12.27;100.00;99804.28;5009178;28;20310;-68
2023/04/13 10:28:46;;;;;;;2.93;1.00;;;;;;;12.04;100.00;99736.81;5008837;28;20321;-67
2023/04/13 10:31:12;;;;;;;2.13;0.93;;;;;;;12.05;100.00;99701.72;5007946;28;20195;-68
2023/04/13 10:33:47;;;;;;;2.53;0.90;;;;;;;12.13;100.00;99689.72;5008677;28;20665;-68
2023/04/13 10:36:13;;;;;;;1.30;1.00;;;;;;;12.03;100.00;99683.75;5008910;28;20293;-68
2023/04/13 10:38:43;;;;;;;2.80;0.80;;;;;;;13.00;100.00;99690.81;4990582;28;20187;-68
2023/04/13 10:41:09;;;;;;;1.87;0.93;;;;;;;13.35;99.98;99609.88;5005710;28;20219;-68
2023/04/13 10:43:34;;;;;;;1.97;1.00;;;;;;;13.08;97.62;99574.19;5009098;28;20281;-67
2023/04/13 10:46:12;;;;;;;1.83;0.90;;;;;;;13.50;97.18;99583.13;5008521;28;20272;-68
2023/04/13 10:48:41;;;;;;;2.17;1.00;;;;;;;13.79;97.90;99597.31;5008482;28;20194;-68
2023/04/13 10:51:07;;;;;;;1.90;1.10;;;;;;;13.63;89.51;99530.66;5008218;28;20649;-67
2023/04/13 10:53:33;;;;;;;1.20;0.90;;;;;;;12.98;89.40;99523.78;5008803;28;20221;-68
2023/04/13 10:56:00;;;;;;;2.50;1.00;;;;;;;12.79;97.93;99607.91;5008525;28;20531;-73
2023/04/13 10:58:27;;;;;;;0.80;0.77;;;;;;;12.85;94.51;99583.84;5008612;28;20199;-69
2023/04/13 11:00:53;;;;;;;1.70;0.80;;;;;;;12.50;100.00;99640.66;5008093;28;20187;-68
2023/04/13 11:03:19;;;;;;;1.97;0.93;;;;;;;12.49;100.00;99704.91;5008777;28;20191;-68
2023/04/13 11:05:46;;;;;;;4.07;1.13;;;;;;;12.77;100.00;99725.22;5004890;28;20591;-68
2023/04/13 11:08:19;;;;;;;1.40;0.80;;;;;;;13.00;100.00;99711.38;5004658;28;20203;-67
2023/04/13 11:10:55;;;;;;;1.20;0.80;;;;;;;13.65;100.00;99665.25;5007466;28;20253;-69
2023/04/13 11:13:24;;;;;;;1.10;0.90;;;;;;;12.88;88.40;99578.69;5008317;28;20213;-69
2023/04/13 11:15:50;;;;;;;0.80;0.70;;;;;;;13.48;100.00;99644.88;5008291;28;20230;-71
2023/04/13 11:18:26;;;;;;;1.17;0.97;;;;;;;13.51;100.00;99734.88;5007425;28;20284;-70
2023/04/13 11:20:52;;;;;;;1.07;0.70;;;;;;;13.72;100.00;99665.16;5006708;28;20198;-68
2023/04/13 11:23:18;;;;;;;1.37;0.90;;;;;;;13.70;93.28;99620.59;5007900;28;20191;-72
2023/04/13 11:25:58;;;;;;;1.60;1.00;;;;;;;13.99;88.87;99579.88;5008383;28;20273;-67
2023/04/13 11:28:34;;;;;;;1.23;0.80;;;;;;;14.28;94.43;99605.22;5007509;28;20194;-68
2023/04/13 11:31:00;;;;;;;1.03;1.00;;;;;;;14.32;89.64;99599.97;5008014;28;20209;-68